Observation data for Levelland on 01/20/2019      Previous  Date  Next       Current Mesonet Observations  Soil Data  Daily Summary Page  Observations in Plain Language
KLD1 200600Z 17006KT M01/M05 A3028 RMK A01 T10061053  RH  071%=      5-min Rain = 0
KLD1 200605Z 18006KT M01/M05 A3028 RMK A01 T10071054  RH  071%=      5-min Rain = 0
KLD1 200610Z 18006KT M01/M06 A3027 RMK A01 T10101055  RH  072%=      5-min Rain = 0
KLD1 200615Z 17006KT M01/M06 A3028 RMK A01 T10111055  RH  072%=      5-min Rain = 0
KLD1 200620Z 17006KT M01/M06 A3028 RMK A01 T10121055  RH  073%=      5-min Rain = 0
KLD1 200625Z 18005KT M01/M06 A3028 RMK A01 T10121055  RH  073%=      5-min Rain = 0
KLD1 200630Z 18006KT M01/M06 A3028 RMK A01 T10121055  RH  073%=      5-min Rain = 0
KLD1 200635Z 18006KT M01/M05 A3028 RMK A01 T10121054  RH  074%=      5-min Rain = 0
KLD1 200640Z 18005KT M01/M05 A3028 RMK A01 T10121054  RH  073%=      5-min Rain = 0
KLD1 200645Z 17005KT M01/M05 A3028 RMK A01 T10111054  RH  073%=      5-min Rain = 0
KLD1 200650Z 17005KT M01/M05 A3028 RMK A01 T10111054  RH  073%=      5-min Rain = 0
KLD1 200655Z 18006KT M01/M05 A3028 RMK A01 T10111054  RH  073%=      5-min Rain = 0
KLD1 200700Z 18006KT M01/M05 A3028 RMK A01 T10121054  RH  073%=      5-min Rain = 0
KLD1 200705Z 19006KT M01/M05 A3028 RMK A01 T10141054  RH  074%=      5-min Rain = 0
KLD1 200710Z 19006KT M01/M05 A3028 RMK A01 T10111052  RH  074%=      5-min Rain = 0
KLD1 200715Z 19006KT M01/M05 A3028 RMK A01 T10091051  RH  073%=      5-min Rain = 0
KLD1 200720Z 19007KT M01/M05 A3028 RMK A01 T10071050  RH  073%=      5-min Rain = 0
KLD1 200725Z 19007KT M01/M05 A3028 RMK A01 T10061050  RH  072%=      5-min Rain = 0
KLD1 200730Z 18007KT M01/M05 A3028 RMK A01 T10061050  RH  072%=      5-min Rain = 0
KLD1 200735Z 18007KT M01/M05 A3027 RMK A01 T10051051  RH  071%=      5-min Rain = 0
KLD1 200740Z 18006KT M01/M05 A3027 RMK A01 T10061051  RH  072%=      5-min Rain = 0
KLD1 200745Z 18007KT M01/M05 A3027 RMK A01 T10081053  RH  072%=      5-min Rain = 0
KLD1 200750Z 18006KT M01/M05 A3027 RMK A01 T10101053  RH  073%=      5-min Rain = 0
KLD1 200755Z 17006KT M01/M05 A3027 RMK A01 T10111053  RH  073%=      5-min Rain = 0
KLD1 200800Z 16006KT M01/M05 A3026 RMK A01 T10111053  RH  073%=      5-min Rain = 0
KLD1 200805Z 17006KT M01/M05 A3026 RMK A01 T10111052  RH  074%=      5-min Rain = 0
KLD1 200810Z 17006KT M01/M05 A3026 RMK A01 T10111052  RH  074%=      5-min Rain = 0
KLD1 200815Z 17006KT M01/M05 A3026 RMK A01 T10101052  RH  074%=      5-min Rain = 0
KLD1 200820Z 17006KT M01/M05 A3026 RMK A01 T10101052  RH  073%=      5-min Rain = 0
KLD1 200825Z 17007KT M01/M05 A3026 RMK A01 T10121053  RH  074%=      5-min Rain = 0
KLD1 200830Z 17007KT M01/M05 A3026 RMK A01 T10121052  RH  074%=      5-min Rain = 0
KLD1 200835Z 17008KT M01/M05 A3026 RMK A01 T10121052  RH  074%=      5-min Rain = 0
KLD1 200840Z 17008KT M01/M05 A3026 RMK A01 T10101051  RH  074%=      5-min Rain = 0
KLD1 200845Z 17008KT M01/M05 A3026 RMK A01 T10081052  RH  073%=      5-min Rain = 0
KLD1 200850Z 17008KT M01/M05 A3026 RMK A01 T10091051  RH  073%=      5-min Rain = 0
KLD1 200855Z 17008KT M01/M05 A3026 RMK A01 T10091052  RH  073%=      5-min Rain = 0
KLD1 200900Z 17007KT M01/M05 A3026 RMK A01 T10101052  RH  073%=      5-min Rain = 0
KLD1 200905Z 17007KT M01/M05 A3026 RMK A01 T10101052  RH  074%=      5-min Rain = 0
KLD1 200910Z 17007KT M01/M05 A3026 RMK A01 T10111051  RH  074%=      5-min Rain = 0
KLD1 200915Z 17007KT M01/M05 A3026 RMK A01 T10111051  RH  074%=      5-min Rain = 0
KLD1 200920Z 17007KT M01/M05 A3026 RMK A01 T10111051  RH  075%=      5-min Rain = 0
KLD1 200925Z 16007KT M01/M05 A3026 RMK A01 T10101051  RH  074%=      5-min Rain = 0
KLD1 200930Z 16006KT M01/M05 A3026 RMK A01 T10101051  RH  074%=      5-min Rain = 0
KLD1 200935Z 16007KT M01/M05 A3026 RMK A01 T10111051  RH  075%=      5-min Rain = 0
KLD1 200940Z 16006KT M01/M05 A3026 RMK A01 T10121051  RH  075%=      5-min Rain = 0
KLD1 200945Z 16005KT M01/M05 A3026 RMK A01 T10141052  RH  076%=      5-min Rain = 0
KLD1 200950Z 16007KT M02/M05 A3026 RMK A01 T10151052  RH  076%=      5-min Rain = 0
KLD1 200955Z 17006KT M01/M05 A3026 RMK A01 T10141052  RH  076%=      5-min Rain = 0
KLD1 201000Z 17006KT M02/M05 A3026 RMK A01 T10151052  RH  076%=      5-min Rain = 0
KLD1 201005Z 17006KT M01/M05 A3026 RMK A01 T10141052  RH  076%=      5-min Rain = 0
KLD1 201010Z 17005KT M01/M05 A3026 RMK A01 T10141052  RH  076%=      5-min Rain = 0
KLD1 201015Z 17005KT M02/M05 A3026 RMK A01 T10161052  RH  076%=      5-min Rain = 0
KLD1 201020Z 16006KT M02/M05 A3025 RMK A01 T10171053  RH  077%=      5-min Rain = 0
KLD1 201025Z 16006KT M02/M05 A3025 RMK A01 T10181053  RH  077%=      5-min Rain = 0
KLD1 201030Z 16005KT M02/M05 A3025 RMK A01 T10191053  RH  078%=      5-min Rain = 0
KLD1 201035Z 16006KT M02/M05 A3025 RMK A01 T10201054  RH  078%=      5-min Rain = 0
KLD1 201040Z 17006KT M02/M05 A3024 RMK A01 T10201053  RH  078%=      5-min Rain = 0
KLD1 201045Z 17007KT M02/M05 A3024 RMK A01 T10191053  RH  078%=      5-min Rain = 0
KLD1 201050Z 17006KT M02/M05 A3024 RMK A01 T10171053  RH  077%=      5-min Rain = 0
KLD1 201055Z 17006KT M02/M05 A3024 RMK A01 T10171053  RH  077%=      5-min Rain = 0
KLD1 201100Z 17006KT M02/M05 A3024 RMK A01 T10171052  RH  077%=      5-min Rain = 0
KLD1 201105Z 18006KT M02/M05 A3024 RMK A01 T10171052  RH  077%=      5-min Rain = 0
KLD1 201110Z 18006KT M02/M05 A3024 RMK A01 T10171052  RH  077%=      5-min Rain = 0
KLD1 201115Z 18006KT M02/M05 A3024 RMK A01 T10181052  RH  077%=      5-min Rain = 0
KLD1 201120Z 18006KT M02/M05 A3024 RMK A01 T10181052  RH  077%=      5-min Rain = 0
KLD1 201125Z 18006KT M02/M05 A3024 RMK A01 T10181052  RH  077%=      5-min Rain = 0
KLD1 201130Z 18006KT M02/M05 A3023 RMK A01 T10171053  RH  077%=      5-min Rain = 0
KLD1 201135Z 18006KT M02/M05 A3023 RMK A01 T10181053  RH  077%=      5-min Rain = 0
KLD1 201140Z 18006KT M02/M05 A3023 RMK A01 T10181052  RH  077%=      5-min Rain = 0
KLD1 201145Z 18005KT M02/M05 A3023 RMK A01 T10181053  RH  078%=      5-min Rain = 0
KLD1 201150Z 18005KT M02/M05 A3023 RMK A01 T10191053  RH  078%=      5-min Rain = 0
KLD1 201155Z 17005KT M02/M05 A3023 RMK A01 T10201053  RH  078%=      5-min Rain = 0
KLD1 201200Z 17005KT M02/M05 A3023 RMK A01 T10211053  RH  079%=      5-min Rain = 0
KLD1 201205Z 18005KT M02/M05 A3023 RMK A01 T10201052  RH  079%=      5-min Rain = 0
KLD1 201210Z 17005KT M02/M05 A3023 RMK A01 T10191052  RH  078%=      5-min Rain = 0
KLD1 201215Z 17005KT M02/M05 A3023 RMK A01 T10191052  RH  078%=      5-min Rain = 0
KLD1 201220Z 17006KT M02/M05 A3023 RMK A01 T10201053  RH  078%=      5-min Rain = 0
KLD1 201225Z 17006KT M02/M05 A3023 RMK A01 T10201052  RH  079%=      5-min Rain = 0
KLD1 201230Z 17006KT M02/M05 A3023 RMK A01 T10191052  RH  079%=      5-min Rain = 0
KLD1 201235Z 17007KT M02/M05 A3023 RMK A01 T10191052  RH  078%=      5-min Rain = 0
KLD1 201240Z 17007KT M02/M05 A3023 RMK A01 T10191052  RH  078%=      5-min Rain = 0
KLD1 201245Z 17007KT M02/M05 A3023 RMK A01 T10181052  RH  078%=      5-min Rain = 0
KLD1 201250Z 17006KT M02/M05 A3022 RMK A01 T10201052  RH  079%=      5-min Rain = 0
KLD1 201255Z 17006KT M02/M05 A3022 RMK A01 T10221053  RH  079%=      5-min Rain = 0
KLD1 201300Z 18005KT M02/M05 A3022 RMK A01 T10241054  RH  080%=      5-min Rain = 0
KLD1 201305Z 18006KT M03/M05 A3022 RMK A01 T10251054  RH  081%=      5-min Rain = 0
KLD1 201310Z 18006KT M02/M05 A3023 RMK A01 T10241053  RH  081%=      5-min Rain = 0
KLD1 201315Z 18006KT M03/M05 A3023 RMK A01 T10251053  RH  081%=      5-min Rain = 0
KLD1 201320Z 19006KT M03/M05 A3023 RMK A01 T10251053  RH  081%=      5-min Rain = 0
KLD1 201325Z 19005KT M03/M05 A3023 RMK A01 T10261054  RH  081%=      5-min Rain = 0
KLD1 201330Z 19005KT M03/M05 A3023 RMK A01 T10271054  RH  082%=      5-min Rain = 0
KLD1 201335Z 19005KT M03/M05 A3023 RMK A01 T10271054  RH  082%=      5-min Rain = 0
KLD1 201340Z 19005KT M03/M06 A3023 RMK A01 T10281055  RH  082%=      5-min Rain = 0
KLD1 201345Z 19006KT M03/M06 A3023 RMK A01 T10281055  RH  082%=      5-min Rain = 0
KLD1 201350Z 19006KT M03/M06 A3023 RMK A01 T10281055  RH  082%=      5-min Rain = 0
KLD1 201355Z 19006KT M03/M06 A3023 RMK A01 T10281055  RH  082%=      5-min Rain = 0
KLD1 201400Z 18006KT M03/M06 A3023 RMK A01 T10281055  RH  082%=      5-min Rain = 0
KLD1 201405Z 18006KT M03/M06 A3024 RMK A01 T10281055  RH  082%=      5-min Rain = 0
KLD1 201410Z 19006KT M03/M05 A3024 RMK A01 T10281054  RH  082%=      5-min Rain = 0
KLD1 201415Z 19006KT M03/M05 A3024 RMK A01 T10271053  RH  082%=      5-min Rain = 0
KLD1 201420Z 19006KT M03/M05 A3024 RMK A01 T10261053  RH  082%=      5-min Rain = 0
KLD1 201425Z 19006KT M02/M05 A3024 RMK A01 T10241051  RH  082%=      5-min Rain = 0
KLD1 201430Z 19007KT M02/M05 A3024 RMK A01 T10191049  RH  080%=      5-min Rain = 0
KLD1 201435Z 19008KT M02/M05 A3023 RMK A01 T10151048  RH  079%=      5-min Rain = 0
KLD1 201440Z 18008KT M01/M05 A3023 RMK A01 T10111046  RH  077%=      5-min Rain = 0
KLD1 201445Z 19009KT M01/M05 A3023 RMK A01 T10081045  RH  076%=      5-min Rain = 0
KLD1 201450Z 18009KT M01/M05 A3023 RMK A01 T10081046  RH  076%=      5-min Rain = 0
KLD1 201455Z 18009KT M01/M05 A3023 RMK A01 T10071045  RH  076%=      5-min Rain = 0
KLD1 201500Z 18009KT M00/M04 A3023 RMK A01 T10041043  RH  075%=      5-min Rain = 0
KLD1 201505Z 18009KT M00/M04 A3023 RMK A01 T10021042  RH  075%=      5-min Rain = 0
KLD1 201510Z 19009KT 00/M04 A3023 RMK A01 T00011041  RH  074%=      5-min Rain = 0
KLD1 201515Z 20009KT 00/M04 A3023 RMK A01 T00041039  RH  073%=      5-min Rain = 0
KLD1 201520Z 20009G15KT 01/M04 A3023 RMK A01 T00061039  RH  072%=      5-min Rain = 0
KLD1 201525Z 20009KT 01/M04 A3023 RMK A01 T00081039  RH  071%=      5-min Rain = 0
KLD1 201530Z 19011KT 01/M04 A3023 RMK A01 T00111038  RH  070%=      5-min Rain = 0
KLD1 201535Z 19012KT 02/M04 A3023 RMK A01 T00161036  RH  069%=      5-min Rain = 0
KLD1 201540Z 19012G17KT 02/M04 A3023 RMK A01 T00181035  RH  068%=      5-min Rain = 0
KLD1 201545Z 19013KT 02/M03 A3023 RMK A01 T00221034  RH  067%=      5-min Rain = 0
KLD1 201550Z 20012KT 02/M03 A3023 RMK A01 T00241033  RH  066%=      5-min Rain = 0
KLD1 201555Z 20013KT 03/M03 A3022 RMK A01 T00281032  RH  065%=      5-min Rain = 0
KLD1 201600Z 20013KT 03/M03 A3022 RMK A01 T00311033  RH  063%=      5-min Rain = 0
KLD1 201605Z 19013KT 03/M03 A3022 RMK A01 T00331034  RH  062%=      5-min Rain = 0
KLD1 201610Z 20012KT 04/M03 A3022 RMK A01 T00381032  RH  061%=      5-min Rain = 0
KLD1 201615Z 20013KT 04/M03 A3022 RMK A01 T00431031  RH  059%=      5-min Rain = 0
KLD1 201620Z 20012KT 05/M03 A3022 RMK A01 T00461031  RH  058%=      5-min Rain = 0
KLD1 201625Z 20012KT 05/M03 A3022 RMK A01 T00501031  RH  056%=      5-min Rain = 0
KLD1 201630Z 20012KT 05/M03 A3022 RMK A01 T00541029  RH  055%=      5-min Rain = 0
KLD1 201635Z 20012KT 06/M03 A3022 RMK A01 T00561029  RH  055%=      5-min Rain = 0
KLD1 201640Z 20011KT 06/M03 A3023 RMK A01 T00601027  RH  054%=      5-min Rain = 0
KLD1 201645Z 20010G15KT 07/M03 A3023 RMK A01 T00671026  RH  052%=      5-min Rain = 0
KLD1 201650Z 20012KT 07/M03 A3023 RMK A01 T00691028  RH  050%=      5-min Rain = 0
KLD1 201655Z 20012KT 07/M03 A3023 RMK A01 T00721029  RH  049%=      5-min Rain = 0
KLD1 201700Z 20011KT 08/M03 A3023 RMK A01 T00771028  RH  048%=      5-min Rain = 0
KLD1 201705Z 20013KT 08/M03 A3022 RMK A01 T00781030  RH  047%=      5-min Rain = 0
KLD1 201710Z 20011KT 08/M03 A3022 RMK A01 T00811030  RH  046%=      5-min Rain = 0
KLD1 201715Z 20012KT 08/M03 A3022 RMK A01 T00831031  RH  044%=      5-min Rain = 0
KLD1 201720Z 21010KT 09/M03 A3022 RMK A01 T00881031  RH  043%=      5-min Rain = 0
KLD1 201725Z 20011KT 09/M03 A3022 RMK A01 T00891033  RH  042%=      5-min Rain = 0
KLD1 201730Z 20011KT 09/M03 A3022 RMK A01 T00901034  RH  042%=      5-min Rain = 0
KLD1 201735Z 21010KT 09/M03 A3021 RMK A01 T00931033  RH  041%=      5-min Rain = 0
KLD1 201740Z 20011KT 10/M03 A3021 RMK A01 T00961033  RH  040%=      5-min Rain = 0
KLD1 201745Z 21012KT 10/M03 A3021 RMK A01 T00991034  RH  039%=      5-min Rain = 0
KLD1 201750Z 22012KT 10/M03 A302 RMK A01 T01041033  RH  038%=      5-min Rain = 0
KLD1 201755Z 21012KT 11/M04 A302 RMK A01 T01061036  RH  037%=      5-min Rain = 0
KLD1 201800Z 22011KT 11/M04 A302 RMK A01 T01071039  RH  036%=      5-min Rain = 0
KLD1 201805Z 21012KT 11/M04 A302 RMK A01 T01091038  RH  036%=      5-min Rain = 0
KLD1 201810Z 21010KT 11/M04 A3019 RMK A01 T01111037  RH  036%=      5-min Rain = 0
KLD1 201815Z 21011G16KT 11/M04 A3019 RMK A01 T01141038  RH  034%=      5-min Rain = 0
KLD1 201820Z 21012KT 12/M04 A3019 RMK A01 T01161039  RH  034%=      5-min Rain = 0
KLD1 201825Z 21011KT 12/M04 A3018 RMK A01 T01191040  RH  033%=      5-min Rain = 0
KLD1 201830Z 21011G16KT 12/M04 A3018 RMK A01 T01201042  RH  032%=      5-min Rain = 0
KLD1 201835Z 22012KT 12/M04 A3018 RMK A01 T01241043  RH  031%=      5-min Rain = 0
KLD1 201840Z 21010KT 13/M04 A3018 RMK A01 T01291041  RH  031%=      5-min Rain = 0
KLD1 201845Z 21011KT 13/M04 A3017 RMK A01 T01331042  RH  030%=      5-min Rain = 0
KLD1 201850Z 22011G18KT 14/M05 A3016 RMK A01 T01411046  RH  027%=      5-min Rain = 0
KLD1 201855Z 22011KT 14/M05 A3016 RMK A01 T01421054  RH  025%=      5-min Rain = 0
KLD1 201900Z 22012KT 14/M06 A3015 RMK A01 T01421059  RH  024%=      5-min Rain = 0
KLD1 201905Z 22013KT 15/M06 A3015 RMK A01 T01451059  RH  024%=      5-min Rain = 0
KLD1 201910Z 22011KT 15/M06 A3014 RMK A01 T01481058  RH  024%=      5-min Rain = 0
KLD1 201915Z 22014KT 15/M06 A3014 RMK A01 T01541062  RH  022%=      5-min Rain = 0
KLD1 201920Z 22014KT 16/M07 A3013 RMK A01 T01561066  RH  021%=      5-min Rain = 0
KLD1 201925Z 24013KT 16/M07 A3013 RMK A01 T01561067  RH  021%=      5-min Rain = 0
KLD1 201930Z 22014KT 16/M07 A3012 RMK A01 T01601065  RH  021%=      5-min Rain = 0
KLD1 201935Z 22014KT 16/M07 A3012 RMK A01 T01631067  RH  020%=      5-min Rain = 0
KLD1 201940Z 23013KT 16/M07 A3012 RMK A01 T01631066  RH  020%=      5-min Rain = 0
KLD1 201945Z 23014G19KT 16/M07 A3012 RMK A01 T01641067  RH  020%=      5-min Rain = 0
KLD1 201950Z 23011KT 16/M07 A3011 RMK A01 T01641067  RH  020%=      5-min Rain = 0
KLD1 201955Z 23013KT 17/M07 A3011 RMK A01 T01701065  RH  019%=      5-min Rain = 0
KLD1 202000Z 22013KT 17/M07 A3011 RMK A01 T01691066  RH  019%=      5-min Rain = 0
KLD1 202005Z 22013G20KT 17/M07 A301 RMK A01 T01691066  RH  019%=      5-min Rain = 0
KLD1 202010Z 22014KT 17/M07 A301 RMK A01 T01671067  RH  019%=      5-min Rain = 0
KLD1 202015Z 23014KT 17/M07 A301 RMK A01 T01651068  RH  020%=      5-min Rain = 0
KLD1 202020Z 22011G16KT 17/M07 A3009 RMK A01 T01701066  RH  019%=      5-min Rain = 0
KLD1 202025Z 21012KT 17/M07 A3009 RMK A01 T01731067  RH  019%=      5-min Rain = 0
KLD1 202030Z 22014KT 17/M07 A3009 RMK A01 T01731068  RH  019%=      5-min Rain = 0
KLD1 202035Z 22013G19KT 17/M07 A3009 RMK A01 T01741067  RH  019%=      5-min Rain = 0
KLD1 202040Z 22015KT 18/M07 A3009 RMK A01 T01771066  RH  018%=      5-min Rain = 0
KLD1 202045Z 22014KT 18/M07 A3009 RMK A01 T01771066  RH  018%=      5-min Rain = 0
KLD1 202050Z 22012G17KT 17/M07 A3008 RMK A01 T01741069  RH  018%=      5-min Rain = 0
KLD1 202055Z 21012G17KT 17/M07 A3008 RMK A01 T01741069  RH  018%=      5-min Rain = 0
KLD1 202100Z 23012G17KT 18/M07 A3008 RMK A01 T01781065  RH  018%=      5-min Rain = 0
KLD1 202105Z 23013KT 18/M07 A3007 RMK A01 T01791066  RH  018%=      5-min Rain = 0
KLD1 202110Z 22012KT 18/M07 A3007 RMK A01 T01771068  RH  018%=      5-min Rain = 0
KLD1 202115Z 21013KT 18/M07 A3007 RMK A01 T01781070  RH  018%=      5-min Rain = 0
KLD1 202120Z 23012KT 18/M07 A3007 RMK A01 T01781068  RH  018%=      5-min Rain = 0
KLD1 202125Z 22010KT 18/M07 A3007 RMK A01 T01821068  RH  018%=      5-min Rain = 0
KLD1 202130Z 22010KT 18/M07 A3007 RMK A01 T01811068  RH  018%=      5-min Rain = 0
KLD1 202135Z 21012KT 18/M07 A3006 RMK A01 T01811068  RH  018%=      5-min Rain = 0
KLD1 202140Z 22012G17KT 18/M07 A3006 RMK A01 T01821067  RH  018%=      5-min Rain = 0
KLD1 202145Z 21012KT 18/M07 A3006 RMK A01 T01831066  RH  018%=      5-min Rain = 0
KLD1 202150Z 21011G17KT 18/M07 A3006 RMK A01 T01811066  RH  018%=      5-min Rain = 0
KLD1 202155Z 23012G17KT 18/M07 A3006 RMK A01 T01821065  RH  018%=      5-min Rain = 0
KLD1 202200Z 21012KT 18/M07 A3006 RMK A01 T01831065  RH  018%=      5-min Rain = 0
KLD1 202205Z 21010KT 18/M07 A3006 RMK A01 T01841065  RH  018%=      5-min Rain = 0
KLD1 202210Z 21012KT 18/M07 A3006 RMK A01 T01841065  RH  018%=      5-min Rain = 0
KLD1 202215Z 21011KT 18/M07 A3006 RMK A01 T01841065  RH  018%=      5-min Rain = 0
KLD1 202220Z 20010KT 18/M07 A3006 RMK A01 T01831065  RH  018%=      5-min Rain = 0
KLD1 202225Z 20012KT 18/M07 A3006 RMK A01 T01821066  RH  018%=      5-min Rain = 0
KLD1 202230Z 19012KT 18/M07 A3006 RMK A01 T01801067  RH  018%=      5-min Rain = 0
KLD1 202235Z 20011G17KT 18/M07 A3006 RMK A01 T01801066  RH  018%=      5-min Rain = 0
KLD1 202240Z 21011G16KT 18/M07 A3006 RMK A01 T01811066  RH  018%=      5-min Rain = 0
KLD1 202245Z 19010G15KT 18/M07 A3006 RMK A01 T01811066  RH  018%=      5-min Rain = 0
KLD1 202250Z 19010KT 17/M07 A3006 RMK A01 T01741066  RH  019%=      5-min Rain = 0
KLD1 202255Z 19010KT 17/M07 A3006 RMK A01 T01701066  RH  019%=      5-min Rain = 0
KLD1 202300Z 20009KT 17/M07 A3006 RMK A01 T01661065  RH  020%=      5-min Rain = 0
KLD1 202305Z 19009KT 16/M06 A3006 RMK A01 T01641064  RH  020%=      5-min Rain = 0
KLD1 202310Z 19009KT 16/M06 A3005 RMK A01 T01621064  RH  021%=      5-min Rain = 0
KLD1 202315Z 19008KT 16/M06 A3005 RMK A01 T01591064  RH  021%=      5-min Rain = 0
KLD1 202320Z 19008KT 16/M06 A3005 RMK A01 T01571063  RH  021%=      5-min Rain = 0
KLD1 202325Z 19008KT 15/M06 A3005 RMK A01 T01541062  RH  022%=      5-min Rain = 0
KLD1 202330Z 18008KT 15/M06 A3005 RMK A01 T01501062  RH  023%=      5-min Rain = 0
KLD1 202335Z 18008KT 15/M06 A3005 RMK A01 T01461062  RH  023%=      5-min Rain = 0
KLD1 202340Z 19008KT 14/M06 A3005 RMK A01 T01421061  RH  024%=      5-min Rain = 0
KLD1 202345Z 18009KT 14/M06 A3004 RMK A01 T01411061  RH  024%=      5-min Rain = 0
KLD1 202350Z 18008KT 14/M06 A3004 RMK A01 T01391062  RH  024%=      5-min Rain = 0
KLD1 202355Z 19009KT 14/M06 A3004 RMK A01 T01361062  RH  025%=      5-min Rain = 0
KLD1 210000Z 19009KT 13/M06 A3004 RMK A01 T01331062  RH  025%=      5-min Rain = 0
KLD1 210005Z 18009KT 13/M06 A3004 RMK A01 T01291062  RH  026%=      5-min Rain = 0
KLD1 210010Z 18008KT 12/M06 A3004 RMK A01 T01241063  RH  027%=      5-min Rain = 0
KLD1 210015Z 18008KT 12/M06 A3004 RMK A01 T01181062  RH  028%=      5-min Rain = 0
KLD1 210020Z 18008KT 12/M06 A3004 RMK A01 T01151062  RH  029%=      5-min Rain = 0
KLD1 210025Z 18008KT 11/M06 A3004 RMK A01 T01121062  RH  029%=      5-min Rain = 0
KLD1 210030Z 18008KT 11/M06 A3004 RMK A01 T01101063  RH  029%=      5-min Rain = 0
KLD1 210035Z 19008KT 11/M06 A3004 RMK A01 T01091063  RH  029%=      5-min Rain = 0
KLD1 210040Z 19009KT 11/M06 A3004 RMK A01 T01071063  RH  030%=      5-min Rain = 0
KLD1 210045Z 19009KT 11/M06 A3004 RMK A01 T01081062  RH  030%=      5-min Rain = 0
KLD1 210050Z 19010KT 11/M06 A3004 RMK A01 T01081063  RH  029%=      5-min Rain = 0
KLD1 210055Z 19011KT 11/M06 A3004 RMK A01 T01091063  RH  029%=      5-min Rain = 0
KLD1 210100Z 19010KT 11/M06 A3004 RMK A01 T01061063  RH  030%=      5-min Rain = 0
KLD1 210105Z 19010KT 11/M06 A3004 RMK A01 T01071064  RH  030%=      5-min Rain = 0
KLD1 210110Z 19010KT 10/M06 A3004 RMK A01 T01041063  RH  030%=      5-min Rain = 0
KLD1 210115Z 19010KT 10/M06 A3004 RMK A01 T01011063  RH  031%=      5-min Rain = 0
KLD1 210120Z 19011KT 10/M06 A3004 RMK A01 T01021063  RH  031%=      5-min Rain = 0
KLD1 210125Z 19010KT 10/M06 A3004 RMK A01 T01001063  RH  031%=      5-min Rain = 0
KLD1 210130Z 18010KT 10/M06 A3004 RMK A01 T00971062  RH  032%=      5-min Rain = 0
KLD1 210135Z 18009KT 09/M06 A3004 RMK A01 T00941062  RH  033%=      5-min Rain = 0
KLD1 210140Z 18009KT 09/M06 A3003 RMK A01 T00911062  RH  033%=      5-min Rain = 0
KLD1 210145Z 18009KT 09/M06 A3003 RMK A01 T00891062  RH  034%=      5-min Rain = 0
KLD1 210150Z 18010KT 09/M06 A3003 RMK A01 T00881062  RH  034%=      5-min Rain = 0
KLD1 210155Z 18010KT 09/M06 A3003 RMK A01 T00871062  RH  034%=      5-min Rain = 0
KLD1 210200Z 18009KT 09/M06 A3003 RMK A01 T00861062  RH  035%=      5-min Rain = 0
KLD1 210205Z 19009KT 09/M06 A3003 RMK A01 T00861062  RH  034%=      5-min Rain = 0
KLD1 210210Z 19009KT 09/M06 A3003 RMK A01 T00861062  RH  035%=      5-min Rain = 0
KLD1 210215Z 19010KT 08/M06 A3002 RMK A01 T00841061  RH  035%=      5-min Rain = 0
KLD1 210220Z 19010KT 08/M06 A3002 RMK A01 T00831061  RH  035%=      5-min Rain = 0
KLD1 210225Z 19009KT 08/M06 A3002 RMK A01 T00811061  RH  036%=      5-min Rain = 0
KLD1 210230Z 19009KT 08/M06 A3002 RMK A01 T00801062  RH  036%=      5-min Rain = 0
KLD1 210235Z 19009KT 08/M06 A3002 RMK A01 T00791062  RH  036%=      5-min Rain = 0
KLD1 210240Z 20008KT 08/M06 A3002 RMK A01 T00781062  RH  037%=      5-min Rain = 0
KLD1 210245Z 20009KT 08/M06 A3002 RMK A01 T00751061  RH  037%=      5-min Rain = 0
KLD1 210250Z 20009KT 08/M06 A3002 RMK A01 T00761061  RH  037%=      5-min Rain = 0
KLD1 210255Z 20009KT 08/M06 A3002 RMK A01 T00771061  RH  037%=      5-min Rain = 0
KLD1 210300Z 20010KT 08/M06 A3002 RMK A01 T00791062  RH  036%=      5-min Rain = 0
KLD1 210305Z 20010KT 08/M06 A3002 RMK A01 T00801062  RH  036%=      5-min Rain = 0
KLD1 210310Z 20009KT 08/M06 A3001 RMK A01 T00781062  RH  036%=      5-min Rain = 0
KLD1 210315Z 19008KT 08/M06 A3001 RMK A01 T00761062  RH  037%=      5-min Rain = 0
KLD1 210320Z 19009KT 07/M06 A3001 RMK A01 T00741062  RH  037%=      5-min Rain = 0
KLD1 210325Z 19009KT 07/M06 A30 RMK A01 T00721062  RH  038%=      5-min Rain = 0
KLD1 210330Z 19009KT 07/M06 A30 RMK A01 T00711062  RH  038%=      5-min Rain = 0
KLD1 210335Z 19008KT 07/M06 A30 RMK A01 T00681062  RH  039%=      5-min Rain = 0
KLD1 210340Z 19008KT 07/M06 A30 RMK A01 T00651062  RH  040%=      5-min Rain = 0
KLD1 210345Z 19008KT 06/M06 A3001 RMK A01 T00631062  RH  040%=      5-min Rain = 0
KLD1 210350Z 19008KT 06/M06 A3001 RMK A01 T00621062  RH  040%=      5-min Rain = 0
KLD1 210355Z 19008KT 06/M06 A3001 RMK A01 T00611062  RH  041%=      5-min Rain = 0
KLD1 210400Z 19007KT 06/M06 A3001 RMK A01 T00581063  RH  042%=      5-min Rain = 0
KLD1 210405Z 19007KT 05/M06 A3001 RMK A01 T00541063  RH  043%=      5-min Rain = 0
KLD1 210410Z 19007KT 05/M06 A3001 RMK A01 T00511063  RH  044%=      5-min Rain = 0
KLD1 210415Z 19007KT 05/M06 A3001 RMK A01 T00501063  RH  044%=      5-min Rain = 0
KLD1 210420Z 20008KT 05/M06 A3001 RMK A01 T00501063  RH  044%=      5-min Rain = 0
KLD1 210425Z 20009KT 05/M06 A3001 RMK A01 T00501063  RH  044%=      5-min Rain = 0
KLD1 210430Z 20010KT 05/M06 A3002 RMK A01 T00511064  RH  043%=      5-min Rain = 0
KLD1 210435Z 20011KT 06/M06 A3002 RMK A01 T00551064  RH  042%=      5-min Rain = 0
KLD1 210440Z 20010KT 06/M06 A3002 RMK A01 T00561064  RH  042%=      5-min Rain = 0
KLD1 210445Z 20010KT 06/M06 A3001 RMK A01 T00571063  RH  042%=      5-min Rain = 0
KLD1 210450Z 20011KT 06/M06 A3001 RMK A01 T00571062  RH  042%=      5-min Rain = 0
KLD1 210455Z 20011KT 06/M06 A3001 RMK A01 T00561062  RH  042%=      5-min Rain = 0
KLD1 210500Z 20011KT 05/M06 A3001 RMK A01 T00531062  RH  044%=      5-min Rain = 0
KLD1 210505Z 20011KT 05/M06 A3001 RMK A01 T00521060  RH  044%=      5-min Rain = 0
KLD1 210510Z 19011KT 05/M06 A3001 RMK A01 T00531059  RH  044%=      5-min Rain = 0
KLD1 210515Z 19010KT 05/M06 A3001 RMK A01 T00541057  RH  044%=      5-min Rain = 0
KLD1 210520Z 19010G15KT 05/M06 A3001 RMK A01 T00541056  RH  045%=      5-min Rain = 0
KLD1 210525Z 19010KT 05/M05 A3001 RMK A01 T00541054  RH  046%=      5-min Rain = 0
KLD1 210530Z 19010KT 05/M05 A3001 RMK A01 T00541051  RH  047%=      5-min Rain = 0
KLD1 210535Z 19010KT 05/M05 A3001 RMK A01 T00541049  RH  048%=      5-min Rain = 0
KLD1 210540Z 19010KT 05/M05 A3001 RMK A01 T00531047  RH  049%=      5-min Rain = 0
KLD1 210545Z 19010KT 05/M05 A3001 RMK A01 T00531045  RH  049%=      5-min Rain = 0
KLD1 210550Z 19011KT 06/M04 A30 RMK A01 T00561042  RH  050%=      5-min Rain = 0
KLD1 210555Z 19012KT 06/M04 A30 RMK A01 T00591040  RH  049%=      5-min Rain = 0

Page generated in 0.01 seconds.